createdAt,value
2019-01-20T00:01:06.521Z,376.07
2019-01-20T00:03:39.301Z,382.23
2019-01-20T00:06:12.061Z,348.50
2019-01-20T00:08:44.768Z,345.73
2019-01-20T00:11:17.658Z,356.50
2019-01-20T00:13:51.917Z,346.73
2019-01-20T00:16:24.701Z,347.17
2019-01-20T00:18:57.552Z,306.47
2019-01-20T00:21:30.305Z,280.23
2019-01-20T00:24:03.007Z,336.40
2019-01-20T00:26:35.803Z,359.80
2019-01-20T00:29:08.539Z,327.37
2019-01-20T00:31:41.298Z,355.53
2019-01-20T00:34:14.217Z,392.43
2019-01-20T00:36:47.514Z,354.83
2019-01-20T00:39:21.146Z,345.97
2019-01-20T00:41:53.896Z,337.13
2019-01-20T00:44:26.633Z,323.00
2019-01-20T00:46:59.322Z,328.47
2019-01-20T00:49:32.010Z,340.43
2019-01-20T00:52:04.722Z,363.10
2019-01-20T00:54:37.422Z,394.77
2019-01-20T00:57:10.177Z,409.70
2019-01-20T00:59:42.921Z,364.40
2019-01-20T01:02:15.737Z,350.57
2019-01-20T01:04:48.441Z,378.90
2019-01-20T01:07:21.240Z,412.47
2019-01-20T01:09:53.928Z,424.17
2019-01-20T01:12:26.912Z,408.37
2019-01-20T01:15:00.699Z,427.80
2019-01-20T01:17:33.494Z,391.53
2019-01-20T01:20:13.342Z,401.50
2019-01-20T01:22:46.069Z,418.80
2019-01-20T01:25:19.286Z,422.63
2019-01-20T01:27:52.193Z,444.03
2019-01-20T01:30:26.814Z,456.90
2019-01-20T01:32:59.535Z,438.10
2019-01-20T01:35:32.230Z,457.90
2019-01-20T01:38:04.978Z,493.83
2019-01-20T01:40:37.746Z,504.27
2019-01-20T01:43:10.613Z,478.57
2019-01-20T01:45:43.381Z,415.97
2019-01-20T01:48:16.182Z,358.90
2019-01-20T01:50:48.939Z,326.83
2019-01-20T01:53:21.679Z,361.00
2019-01-20T01:55:54.372Z,362.00
2019-01-20T01:58:27.132Z,356.63
2019-01-20T02:00:59.944Z,343.27
2019-01-20T02:03:32.750Z,342.67
2019-01-20T02:06:05.523Z,354.30
2019-01-20T02:08:39.387Z,390.23
2019-01-20T02:11:12.091Z,391.93
2019-01-20T02:13:44.845Z,393.10
2019-01-20T02:16:17.612Z,391.73
2019-01-20T02:18:50.386Z,393.80
2019-01-20T02:21:23.080Z,383.53
2019-01-20T02:23:55.830Z,369.13
2019-01-20T02:26:28.646Z,359.97
2019-01-20T02:29:01.587Z,364.60
2019-01-20T02:31:34.292Z,305.73
2019-01-20T02:34:06.994Z,289.30
2019-01-20T02:36:39.725Z,305.87
2019-01-20T02:39:12.452Z,309.77
2019-01-20T02:41:45.136Z,325.47
2019-01-20T02:44:17.892Z,286.93
2019-01-20T02:46:50.581Z,288.27
2019-01-20T02:49:23.281Z,300.40
2019-01-20T02:51:55.987Z,296.07
2019-01-20T02:54:28.690Z,291.23
2019-01-20T02:57:02.265Z,297.10
2019-01-20T02:59:34.965Z,301.37
2019-01-20T03:02:07.698Z,295.20
2019-01-20T03:04:40.541Z,320.20
2019-01-20T03:07:13.267Z,313.20
2019-01-20T03:09:45.981Z,327.87
2019-01-20T03:12:18.661Z,302.20
2019-01-20T03:14:51.357Z,295.80
2019-01-20T03:17:24.041Z,284.63
2019-01-20T03:19:56.742Z,301.83
2019-01-20T03:22:29.542Z,300.47
2019-01-20T03:25:02.325Z,277.33
2019-01-20T03:27:35.092Z,287.10
2019-01-20T03:30:13.577Z,321.97
2019-01-20T03:32:46.530Z,323.13
2019-01-20T03:35:22.694Z,289.83
2019-01-20T03:37:55.394Z,290.43
2019-01-20T03:40:28.107Z,289.70
2019-01-20T03:43:00.822Z,276.03
2019-01-20T03:45:33.518Z,282.23
2019-01-20T03:48:06.294Z,302.00
2019-01-20T03:50:39.033Z,297.93
2019-01-20T03:53:11.725Z,313.37
2019-01-20T03:55:44.445Z,338.87
2019-01-20T03:58:17.155Z,270.00
2019-01-20T04:00:49.867Z,297.60
2019-01-20T04:03:22.664Z,315.23
2019-01-20T04:05:55.374Z,306.93
2019-01-20T04:08:28.080Z,262.30
2019-01-20T04:11:00.779Z,274.50
2019-01-20T04:13:33.558Z,288.07
2019-01-20T04:16:06.330Z,268.73
2019-01-20T04:18:39.105Z,307.23
2019-01-20T04:21:11.803Z,292.97
2019-01-20T04:23:44.540Z,309.27
2019-01-20T04:26:17.261Z,427.50
2019-01-20T04:28:50.026Z,412.80
2019-01-20T04:31:22.720Z,389.27
2019-01-20T04:33:55.499Z,359.73
2019-01-20T04:36:28.213Z,347.70
2019-01-20T04:39:00.937Z,304.97
2019-01-20T04:41:35.728Z,310.03
2019-01-20T04:44:08.556Z,352.57
2019-01-20T04:46:41.356Z,296.27
2019-01-20T04:49:14.154Z,305.63
2019-01-20T04:51:46.825Z,300.37
2019-01-20T04:54:19.599Z,306.93
2019-01-20T04:56:52.283Z,280.83
2019-01-20T04:59:25.054Z,300.43
2019-01-20T05:01:57.733Z,265.63
2019-01-20T05:04:30.598Z,261.83
2019-01-20T05:07:03.421Z,258.90
2019-01-20T05:09:36.152Z,246.50
2019-01-20T05:12:08.919Z,246.50
2019-01-20T05:14:41.748Z,260.73
2019-01-20T05:17:14.436Z,256.03
2019-01-20T05:19:47.119Z,258.17
2019-01-20T05:22:19.804Z,264.83
2019-01-20T05:24:52.485Z,276.47
2019-01-20T05:27:25.208Z,299.43
2019-01-20T05:29:57.995Z,309.40
2019-01-20T05:32:30.765Z,371.43
2019-01-20T05:35:03.467Z,461.73
2019-01-20T05:37:36.174Z,406.93
2019-01-20T05:40:11.049Z,380.40
2019-01-20T05:42:46.418Z,399.33
2019-01-20T05:45:21.084Z,424.50
2019-01-20T05:47:53.812Z,418.30
2019-01-20T05:50:26.532Z,399.57
2019-01-20T05:52:59.218Z,401.37
2019-01-20T05:55:32.568Z,386.73
2019-01-20T05:58:05.939Z,391.63
2019-01-20T06:00:38.765Z,396.17
2019-01-20T06:03:11.601Z,355.10
2019-01-20T06:05:44.307Z,334.80
2019-01-20T06:08:17.004Z,333.07
2019-01-20T06:10:49.782Z,322.43
2019-01-20T06:13:22.592Z,331.93
2019-01-20T06:15:55.334Z,323.63
2019-01-20T06:18:28.060Z,350.67
2019-01-20T06:21:00.730Z,358.00
2019-01-20T06:23:33.440Z,319.50
2019-01-20T06:26:06.194Z,305.97
2019-01-20T06:28:39.590Z,282.00
2019-01-20T06:31:12.446Z,393.80
2019-01-20T06:33:45.212Z,297.10
2019-01-20T06:36:17.951Z,277.23
2019-01-20T06:38:50.657Z,279.83
2019-01-20T06:41:23.376Z,291.17
2019-01-20T06:43:56.105Z,327.87
2019-01-20T06:46:28.789Z,320.53
2019-01-20T06:49:01.503Z,293.83
2019-01-20T06:51:34.521Z,501.80
2019-01-20T06:54:07.325Z,952.03
2019-01-20T06:56:40.091Z,463.27
2019-01-20T06:59:12.857Z,393.93
2019-01-20T07:01:45.677Z,309.13
2019-01-20T07:04:19.762Z,289.93
2019-01-20T07:06:52.495Z,298.40
2019-01-20T07:09:25.390Z,372.33
2019-01-20T07:11:58.235Z,385.83
2019-01-20T07:14:30.992Z,409.90
2019-01-20T07:17:04.043Z,403.27
2019-01-20T07:19:36.769Z,409.00
2019-01-20T07:22:10.807Z,441.27
2019-01-20T07:24:44.409Z,424.73
2019-01-20T07:27:18.341Z,445.07
2019-01-20T07:29:54.438Z,446.67
2019-01-20T07:32:29.077Z,436.27
2019-01-20T07:35:03.456Z,405.50
2019-01-20T07:37:41.293Z,390.93
2019-01-20T07:40:17.998Z,382.83
2019-01-20T07:42:52.596Z,435.33
2019-01-20T07:45:25.388Z,459.77
2019-01-20T07:47:58.117Z,493.63
2019-01-20T07:50:31.015Z,496.80
2019-01-20T07:53:05.005Z,501.87
2019-01-20T07:55:37.795Z,440.67
2019-01-20T07:58:10.651Z,447.00
2019-01-20T08:00:43.380Z,449.40
2019-01-20T08:03:16.097Z,451.23
2019-01-20T08:05:53.828Z,406.37
2019-01-20T08:08:26.628Z,425.70
2019-01-20T08:10:59.375Z,422.77
2019-01-20T08:13:32.207Z,419.93
2019-01-20T08:16:05.217Z,391.63
2019-01-20T08:18:38.043Z,430.03
2019-01-20T08:21:10.841Z,452.23
2019-01-20T08:23:43.683Z,465.13
2019-01-20T08:26:16.542Z,484.43
2019-01-20T08:28:49.364Z,533.60
2019-01-20T08:31:22.152Z,520.43
2019-01-20T08:33:56.125Z,458.27
2019-01-20T08:36:29.055Z,406.30
2019-01-20T08:39:01.985Z,372.57
2019-01-20T08:41:36.380Z,352.97
2019-01-20T08:44:10.659Z,319.20
2019-01-20T08:46:55.637Z,280.80
2019-01-20T08:49:28.408Z,283.90
2019-01-20T08:52:01.228Z,288.67
2019-01-20T08:54:34.019Z,271.80
2019-01-20T08:57:06.841Z,246.93
2019-01-20T08:59:39.877Z,296.20
2019-01-20T09:02:13.011Z,292.97
2019-01-20T09:04:45.849Z,316.87
2019-01-20T09:10:35.819Z,347.93
2019-01-20T09:13:10.417Z,319.60
2019-01-20T09:15:43.293Z,332.13
2019-01-20T09:18:16.180Z,329.40
2019-01-20T09:20:48.938Z,297.77
2019-01-20T09:23:21.700Z,333.43
2019-01-20T09:25:54.428Z,328.57
2019-01-20T09:28:27.349Z,389.60
2019-01-20T09:31:00.295Z,326.93
2019-01-20T09:33:33.104Z,278.77
2019-01-20T09:36:05.966Z,280.77
2019-01-20T09:38:38.819Z,272.67
2019-01-20T09:41:13.232Z,278.33
2019-01-20T09:43:47.404Z,270.40
2019-01-20T09:46:20.565Z,274.93
2019-01-20T09:48:53.361Z,251.73
2019-01-20T09:51:26.091Z,231.70
2019-01-20T09:53:58.804Z,257.83
2019-01-20T09:56:32.693Z,277.47
2019-01-20T09:59:07.146Z,304.13
2019-01-20T10:01:39.963Z,325.63
2019-01-20T10:04:12.695Z,351.23
2019-01-20T10:06:49.444Z,331.77
2019-01-20T10:09:22.679Z,320.83
2019-01-20T10:11:55.448Z,345.23
2019-01-20T10:14:28.391Z,277.03
2019-01-20T10:17:01.200Z,265.33
2019-01-20T10:19:34.373Z,239.03
2019-01-20T10:22:07.815Z,233.03
2019-01-20T10:24:44.578Z,228.10
2019-01-20T10:27:18.107Z,243.90
2019-01-20T10:29:50.866Z,277.30
2019-01-20T10:32:23.706Z,209.70
2019-01-20T10:34:57.068Z,207.67
2019-01-20T10:37:30.509Z,206.47
2019-01-20T10:40:03.854Z,198.30
2019-01-20T10:42:37.018Z,202.90
2019-01-20T10:45:10.880Z,207.50
2019-01-20T10:47:43.933Z,241.70
2019-01-20T10:50:16.892Z,255.40
2019-01-20T10:52:49.611Z,247.27
2019-01-20T10:55:22.466Z,238.97
2019-01-20T10:57:55.253Z,224.60
2019-01-20T11:00:31.435Z,226.50
2019-01-20T11:03:04.173Z,226.93
2019-01-20T11:05:36.952Z,273.33
2019-01-20T11:08:09.704Z,249.13
2019-01-20T11:10:42.490Z,223.10
2019-01-20T11:13:15.276Z,193.63
2019-01-20T11:15:48.036Z,174.60
2019-01-20T11:18:20.774Z,118.00
2019-01-20T11:20:53.513Z,157.43
2019-01-20T11:23:26.705Z,180.97
2019-01-20T11:25:59.941Z,182.70
2019-01-20T11:28:32.727Z,188.27
2019-01-20T11:31:05.415Z,173.53
2019-01-20T11:33:38.182Z,177.70
2019-01-20T11:36:10.979Z,173.80
2019-01-20T11:38:43.656Z,173.10
2019-01-20T11:41:16.386Z,185.27
2019-01-20T11:43:49.140Z,147.30
2019-01-20T11:46:21.903Z,144.27
2019-01-20T11:48:55.028Z,148.63
2019-01-20T11:51:27.769Z,142.80
2019-01-20T11:54:01.476Z,131.03
2019-01-20T11:56:35.213Z,116.87
2019-01-20T11:59:08.022Z,115.73
2019-01-20T12:01:43.676Z,123.27
2019-01-20T12:04:16.544Z,110.10
2019-01-20T12:06:49.470Z,87.13
2019-01-20T12:17:57.261Z,113.97
2019-01-20T12:25:38.741Z,99.17
2019-01-20T12:28:12.182Z,117.63
2019-01-20T12:34:38.800Z,108.63
2019-01-20T12:38:58.844Z,102.87
2019-01-20T12:45:20.617Z,70.03
2019-01-20T12:51:36.387Z,63.43
2019-01-20T12:54:37.960Z,61.17
2019-01-20T12:57:36.962Z,79.37
2019-01-20T13:00:21.117Z,78.37
2019-01-20T13:02:55.486Z,76.20
2019-01-20T13:07:33.847Z,77.47
2019-01-20T13:09:45.182Z,82.50
2019-01-20T13:12:21.830Z,92.60
2019-01-20T13:17:54.237Z,94.53
2019-01-20T13:20:45.891Z,91.60
2019-01-20T13:23:23.145Z,94.67
2019-01-20T13:25:55.956Z,110.50
2019-01-20T13:28:31.072Z,104.57
2019-01-20T13:31:49.602Z,103.97
2019-01-20T13:34:35.076Z,95.93
2019-01-20T13:37:08.038Z,96.27
2019-01-20T13:39:40.877Z,102.17
2019-01-20T13:42:52.475Z,108.00
2019-01-20T13:45:58.768Z,109.87
2019-01-20T13:49:14.450Z,107.90
2019-01-20T13:51:47.255Z,122.00
2019-01-20T13:54:20.108Z,109.63
2019-01-20T13:56:52.858Z,103.20
2019-01-20T13:59:25.585Z,98.43
2019-01-20T14:01:58.342Z,93.90
2019-01-20T14:04:31.029Z,90.37
2019-01-20T14:07:03.737Z,91.30
2019-01-20T14:09:36.513Z,82.77
2019-01-20T14:12:09.224Z,82.57
2019-01-20T14:14:42.044Z,82.83
2019-01-20T14:17:14.835Z,66.37
2019-01-20T14:19:49.406Z,60.37
2019-01-20T14:22:22.347Z,58.67
2019-01-20T14:24:55.385Z,57.67
2019-01-20T14:27:28.230Z,56.53
2019-01-20T14:30:01.089Z,66.20
2019-01-20T14:32:33.961Z,63.43
2019-01-20T14:35:07.784Z,61.97
2019-01-20T14:37:47.266Z,53.20
2019-01-20T14:40:20.162Z,60.17
2019-01-20T14:42:53.071Z,55.87
2019-01-20T14:45:25.835Z,57.27
2019-01-20T14:48:02.256Z,61.73
2019-01-20T14:50:38.339Z,60.17
2019-01-20T14:53:11.112Z,55.37
2019-01-20T14:55:43.808Z,60.03
2019-01-20T14:58:25.829Z,54.80
2019-01-20T15:00:58.539Z,55.47
2019-01-20T15:03:31.230Z,55.20
2019-01-20T15:06:03.911Z,49.70
2019-01-20T15:08:36.692Z,54.70
2019-01-20T15:11:09.537Z,51.33
2019-01-20T15:13:42.220Z,47.90
2019-01-20T15:16:14.877Z,55.33
2019-01-20T15:18:47.551Z,56.67
2019-01-20T15:21:20.257Z,54.00
2019-01-20T15:23:52.978Z,51.67
2019-01-20T15:26:25.761Z,44.90
2019-01-20T15:28:58.469Z,56.87
2019-01-20T15:31:31.184Z,48.27
2019-01-20T15:34:03.834Z,42.07
2019-01-20T15:36:36.590Z,44.37
2019-01-20T15:39:10.302Z,49.73
2019-01-20T15:41:43.072Z,38.30
2019-01-20T15:44:17.337Z,41.43
2019-01-20T15:46:50.017Z,51.53
2019-01-20T15:49:23.868Z,49.13
2019-01-20T15:51:56.589Z,48.07
2019-01-20T15:54:29.340Z,53.03
2019-01-20T15:57:02.048Z,48.73
2019-01-20T15:59:35.900Z,53.13
2019-01-20T16:02:08.811Z,62.80
2019-01-20T16:04:41.528Z,71.60
2019-01-20T16:07:14.237Z,80.37
2019-01-20T16:09:47.050Z,62.53
2019-01-20T16:12:19.850Z,49.50
2019-01-20T16:15:24.689Z,56.33
2019-01-20T16:18:08.650Z,59.27
2019-01-20T16:20:41.513Z,67.73
2019-01-20T16:23:14.244Z,62.03
2019-01-20T16:25:46.969Z,63.77
2019-01-20T16:28:19.691Z,64.37
2019-01-20T16:30:52.412Z,63.23
2019-01-20T16:33:25.180Z,49.67
2019-01-20T16:35:57.913Z,54.50
2019-01-20T16:38:31.781Z,62.83
2019-01-20T16:41:04.554Z,89.63
2019-01-20T16:43:37.261Z,94.93
2019-01-20T16:46:10.008Z,90.70
2019-01-20T16:48:42.817Z,82.47
2019-01-20T16:51:15.610Z,79.87
2019-01-20T16:53:48.373Z,74.27
2019-01-20T16:56:21.094Z,69.83
2019-01-20T16:59:50.094Z,75.43
2019-01-20T17:02:22.769Z,56.87
2019-01-20T17:05:14.006Z,61.33
2019-01-20T17:08:00.991Z,56.47
2019-01-20T17:10:36.821Z,52.97
2019-01-20T17:13:11.076Z,47.97
2019-01-20T17:15:46.247Z,53.97
2019-01-20T17:18:18.982Z,49.77
2019-01-20T17:20:51.693Z,49.00
2019-01-20T17:23:24.517Z,49.03
2019-01-20T17:25:57.299Z,49.47
2019-01-20T17:28:30.012Z,51.53
2019-01-20T17:31:02.766Z,54.27
2019-01-20T17:33:35.561Z,58.63
2019-01-20T17:36:08.391Z,59.83
2019-01-20T17:38:41.126Z,55.43
2019-01-20T17:41:14.939Z,58.27
2019-01-20T17:43:47.683Z,66.57
2019-01-20T17:46:20.397Z,67.07
2019-01-20T17:48:53.858Z,68.13
2019-01-20T17:51:26.642Z,61.47
2019-01-20T17:53:59.373Z,70.40
2019-01-20T17:56:32.079Z,72.43
2019-01-20T17:59:04.811Z,73.47
2019-01-20T18:01:40.665Z,53.93
2019-01-20T18:04:13.509Z,56.67
2019-01-20T18:07:42.122Z,48.00
2019-01-20T18:10:14.913Z,49.23
2019-01-20T18:12:47.652Z,123.23
2019-01-20T18:27:52.655Z,42.50
2019-01-20T18:30:26.696Z,36.43
2019-01-20T18:32:59.410Z,33.07
2019-01-20T18:35:32.167Z,39.70
2019-01-20T18:38:20.062Z,38.03
2019-01-20T18:40:57.138Z,36.07
2019-01-20T18:43:44.986Z,49.17
2019-01-20T18:46:36.771Z,41.43
2019-01-20T18:49:17.143Z,46.90
2019-01-20T18:52:10.580Z,68.13
2019-01-20T18:54:44.355Z,67.50
2019-01-20T18:58:02.417Z,72.93
2019-01-20T19:00:43.328Z,55.57
2019-01-20T19:03:39.326Z,56.47
2019-01-20T19:06:13.182Z,53.63
2019-01-20T19:09:14.088Z,46.37
2019-01-20T19:12:24.827Z,43.70
2019-01-20T19:15:27.763Z,34.00
2019-01-20T19:18:02.147Z,51.60
2019-01-20T19:20:40.969Z,47.00
2019-01-20T19:27:00.815Z,49.10
2019-01-20T19:29:56.393Z,37.60
2019-01-20T19:32:55.174Z,34.37
2019-01-20T19:35:28.449Z,33.60
2019-01-20T19:38:01.353Z,34.40
2019-01-20T19:40:59.901Z,36.17
2019-01-20T19:43:39.029Z,29.80
2019-01-20T19:49:58.380Z,38.53
2019-01-20T19:52:31.202Z,47.80
2019-01-20T19:55:30.857Z,48.50
2019-01-20T19:58:28.105Z,49.23
2019-01-20T20:01:10.611Z,44.03
2019-01-20T20:03:43.521Z,39.10
2019-01-20T20:06:16.358Z,44.20
2019-01-20T20:09:15.809Z,48.07
2019-01-20T20:12:04.064Z,35.67
2019-01-20T20:14:37.108Z,44.33
2019-01-20T20:17:16.678Z,41.20
2019-01-20T20:20:51.618Z,36.97
2019-01-20T20:23:37.675Z,35.10
2019-01-20T20:26:12.941Z,25.63
2019-01-20T20:28:49.190Z,30.67
2019-01-20T20:31:22.191Z,32.73
2019-01-20T20:33:55.060Z,27.53
2019-01-20T20:36:27.888Z,31.27
2019-01-20T20:39:00.638Z,28.00
2019-01-20T20:41:34.959Z,35.53
2019-01-20T20:44:07.896Z,33.40
2019-01-20T20:46:40.673Z,32.83
2019-01-20T20:49:13.369Z,38.13
2019-01-20T20:51:46.044Z,33.57
2019-01-20T20:54:18.892Z,34.07
2019-01-20T20:56:57.626Z,35.93
2019-01-20T20:59:33.304Z,30.63
2019-01-20T21:02:25.353Z,43.87
2019-01-20T21:05:04.123Z,33.93
2019-01-20T21:07:38.703Z,40.57
2019-01-20T21:10:15.692Z,40.67
2019-01-20T21:12:48.744Z,35.63
2019-01-20T21:15:33.581Z,46.10
2019-01-20T21:18:26.241Z,25.07
2019-01-20T21:21:14.329Z,36.77
2019-01-20T21:23:49.972Z,41.37
2019-01-20T21:26:26.373Z,36.60
2019-01-20T21:29:00.222Z,25.47
2019-01-20T21:31:33.944Z,20.70
2019-01-20T21:34:08.308Z,20.90
2019-01-20T21:36:41.108Z,22.43
2019-01-20T21:39:13.869Z,20.60
2019-01-20T21:41:46.602Z,19.90
2019-01-20T21:44:19.277Z,24.63
2019-01-20T21:46:52.025Z,24.23
2019-01-20T21:49:24.703Z,24.40
2019-01-20T21:51:57.449Z,24.70
2019-01-20T21:54:30.271Z,31.50
2019-01-20T21:59:19.471Z,45.27
2019-01-20T22:05:18.580Z,29.33
2019-01-20T22:08:39.822Z,26.97
2019-01-20T22:11:14.663Z,30.17
2019-01-20T22:13:58.745Z,24.13
2019-01-20T22:17:08.481Z,18.10
2019-01-20T22:19:48.686Z,17.07
2019-01-20T22:22:25.955Z,20.87
2019-01-20T22:25:30.043Z,19.87
2019-01-20T22:28:33.786Z,16.83
2019-01-20T22:31:39.244Z,19.50
2019-01-20T22:34:48.282Z,19.97
2019-01-20T22:37:48.483Z,20.73
2019-01-20T22:44:06.170Z,22.37
2019-01-20T22:46:39.179Z,25.17
2019-01-20T22:49:12.089Z,27.47
2019-01-20T22:51:59.469Z,27.53
2019-01-20T22:55:04.066Z,26.80
2019-01-20T22:57:40.290Z,25.07
2019-01-20T23:00:44.175Z,27.13
2019-01-20T23:03:17.924Z,25.67
2019-01-20T23:05:53.460Z,23.30
2019-01-20T23:08:26.539Z,27.87
2019-01-20T23:10:59.215Z,30.17
2019-01-20T23:13:31.945Z,30.03
2019-01-20T23:16:04.699Z,29.90
2019-01-20T23:18:37.466Z,28.13
2019-01-20T23:21:10.238Z,24.63
2019-01-20T23:24:10.771Z,26.37
2019-01-20T23:27:35.320Z,32.17
2019-01-20T23:30:50.179Z,26.33
2019-01-20T23:36:58.135Z,24.50
2019-01-20T23:39:51.168Z,27.53
2019-01-20T23:43:01.389Z,25.27
2019-01-20T23:45:36.633Z,23.97
2019-01-20T23:48:10.263Z,27.63
2019-01-20T23:50:43.224Z,19.80
2019-01-20T23:53:15.974Z,24.80
2019-01-20T23:55:48.678Z,19.03
2019-01-20T23:58:21.386Z,21.47
